sensor_id;sensor_type;location;lat;lon;timestamp;P1;durP1;ratioP1;P2;durP2;ratioP2
51836;SDS011;38941;53.254;6.600;2022-12-29T00:01:19;2.85;;;2.25;;
51836;SDS011;38941;53.254;6.600;2022-12-29T00:03:20;4.60;;;2.03;;
51836;SDS011;38941;53.254;6.600;2022-12-29T00:05:21;3.33;;;2.20;;
51836;SDS011;38941;53.254;6.600;2022-12-29T00:07:21;4.65;;;2.75;;
51836;SDS011;38941;53.254;6.600;2022-12-29T00:09:22;3.00;;;2.20;;
51836;SDS011;38941;53.254;6.600;2022-12-29T00:11:24;3.65;;;1.95;;
51836;SDS011;38941;53.254;6.600;2022-12-29T00:13:26;2.88;;;1.98;;
51836;SDS011;38941;53.254;6.600;2022-12-29T00:15:45;2.38;;;1.98;;
51836;SDS011;38941;53.254;6.600;2022-12-29T00:17:45;3.72;;;2.35;;
51836;SDS011;38941;53.254;6.600;2022-12-29T00:19:46;3.03;;;2.17;;
51836;SDS011;38941;53.254;6.600;2022-12-29T00:22:05;1.92;;;1.42;;
51836;SDS011;38941;53.254;6.600;2022-12-29T00:24:25;4.43;;;2.10;;
51836;SDS011;38941;53.254;6.600;2022-12-29T00:26:26;4.70;;;2.42;;
51836;SDS011;38941;53.254;6.600;2022-12-29T00:28:45;2.50;;;1.75;;
51836;SDS011;38941;53.254;6.600;2022-12-29T00:33:28;4.63;;;2.28;;
51836;SDS011;38941;53.254;6.600;2022-12-29T00:35:52;3.33;;;1.77;;
51836;SDS011;38941;53.254;6.600;2022-12-29T00:37:58;2.38;;;1.73;;
51836;SDS011;38941;53.254;6.600;2022-12-29T00:40:20;2.90;;;2.30;;
51836;SDS011;38941;53.254;6.600;2022-12-29T00:45:00;2.17;;;1.63;;
51836;SDS011;38941;53.254;6.600;2022-12-29T00:47:01;4.40;;;2.03;;
51836;SDS011;38941;53.254;6.600;2022-12-29T00:49:04;3.88;;;2.20;;
51836;SDS011;38941;53.254;6.600;2022-12-29T00:51:25;3.42;;;2.00;;
51836;SDS011;38941;53.254;6.600;2022-12-29T00:53:25;3.17;;;1.98;;
51836;SDS011;38941;53.254;6.600;2022-12-29T00:55:26;4.20;;;2.17;;
51836;SDS011;38941;53.254;6.600;2022-12-29T00:57:28;3.25;;;2.22;;
51836;SDS011;38941;53.254;6.600;2022-12-29T00:59:28;2.72;;;1.92;;
51836;SDS011;38941;53.254;6.600;2022-12-29T01:01:29;3.42;;;1.90;;
51836;SDS011;38941;53.254;6.600;2022-12-29T01:03:31;2.38;;;2.00;;
51836;SDS011;38941;53.254;6.600;2022-12-29T01:05:35;4.60;;;2.08;;
51836;SDS011;38941;53.254;6.600;2022-12-29T01:07:36;3.42;;;2.35;;
51836;SDS011;38941;53.254;6.600;2022-12-29T01:09:37;3.30;;;1.80;;
51836;SDS011;38941;53.254;6.600;2022-12-29T01:13:57;4.55;;;2.25;;
51836;SDS011;38941;53.254;6.600;2022-12-29T01:15:58;4.78;;;1.95;;
51836;SDS011;38941;53.254;6.600;2022-12-29T01:17:59;3.00;;;2.13;;
51836;SDS011;38941;53.254;6.600;2022-12-29T01:20:00;5.75;;;2.50;;
51836;SDS011;38941;53.254;6.600;2022-12-29T01:22:01;2.50;;;2.03;;
51836;SDS011;38941;53.254;6.600;2022-12-29T01:24:02;3.20;;;2.20;;
51836;SDS011;38941;53.254;6.600;2022-12-29T01:26:09;3.47;;;2.13;;
51836;SDS011;38941;53.254;6.600;2022-12-29T01:28:12;4.60;;;2.45;;
51836;SDS011;38941;53.254;6.600;2022-12-29T01:30:14;3.50;;;2.10;;
51836;SDS011;38941;53.254;6.600;2022-12-29T01:32:14;3.30;;;2.60;;
51836;SDS011;38941;53.254;6.600;2022-12-29T01:34:15;2.47;;;2.10;;
51836;SDS011;38941;53.254;6.600;2022-12-29T01:36:17;2.55;;;1.95;;
51836;SDS011;38941;53.254;6.600;2022-12-29T01:38:18;8.98;;;2.55;;
51836;SDS011;38941;53.254;6.600;2022-12-29T01:40:19;4.43;;;2.25;;
51836;SDS011;38941;53.254;6.600;2022-12-29T01:42:22;3.72;;;2.30;;
51836;SDS011;38941;53.254;6.600;2022-12-29T01:46:50;4.70;;;2.40;;
51836;SDS011;38941;53.254;6.600;2022-12-29T01:49:03;3.25;;;2.10;;
51836;SDS011;38941;53.254;6.600;2022-12-29T01:51:08;4.18;;;2.40;;
51836;SDS011;38941;53.254;6.600;2022-12-29T01:53:11;4.43;;;2.28;;
51836;SDS011;38941;53.254;6.600;2022-12-29T01:55:17;4.88;;;2.30;;
51836;SDS011;38941;53.254;6.600;2022-12-29T01:57:20;4.50;;;2.67;;
51836;SDS011;38941;53.254;6.600;2022-12-29T01:59:34;3.65;;;2.40;;
51836;SDS011;38941;53.254;6.600;2022-12-29T02:01:41;5.10;;;2.28;;
51836;SDS011;38941;53.254;6.600;2022-12-29T02:03:43;3.28;;;2.53;;
51836;SDS011;38941;53.254;6.600;2022-12-29T02:05:52;3.92;;;2.38;;
51836;SDS011;38941;53.254;6.600;2022-12-29T02:08:08;3.90;;;2.45;;
51836;SDS011;38941;53.254;6.600;2022-12-29T02:10:10;3.50;;;2.33;;
51836;SDS011;38941;53.254;6.600;2022-12-29T02:12:10;7.10;;;2.42;;
51836;SDS011;38941;53.254;6.600;2022-12-29T02:14:12;3.65;;;2.45;;
51836;SDS011;38941;53.254;6.600;2022-12-29T02:23:09;5.90;;;2.65;;
51836;SDS011;38941;53.254;6.600;2022-12-29T02:28:02;2.53;;;2.05;;
51836;SDS011;38941;53.254;6.600;2022-12-29T02:34:20;5.85;;;2.00;;
51836;SDS011;38941;53.254;6.600;2022-12-29T02:39:04;3.05;;;1.70;;
51836;SDS011;38941;53.254;6.600;2022-12-29T02:41:19;4.55;;;1.92;;
51836;SDS011;38941;53.254;6.600;2022-12-29T02:43:33;2.60;;;1.60;;
51836;SDS011;38941;53.254;6.600;2022-12-29T02:45:38;2.45;;;1.38;;
51836;SDS011;38941;53.254;6.600;2022-12-29T02:48:08;2.47;;;1.80;;
51836;SDS011;38941;53.254;6.600;2022-12-29T02:50:23;2.58;;;1.40;;
51836;SDS011;38941;53.254;6.600;2022-12-29T02:52:32;1.50;;;1.40;;
51836;SDS011;38941;53.254;6.600;2022-12-29T02:54:35;2.83;;;1.60;;
51836;SDS011;38941;53.254;6.600;2022-12-29T02:56:42;2.92;;;1.42;;
51836;SDS011;38941;53.254;6.600;2022-12-29T02:58:43;2.50;;;1.30;;
51836;SDS011;38941;53.254;6.600;2022-12-29T03:14:58;2.58;;;1.10;;
51836;SDS011;38941;53.254;6.600;2022-12-29T03:17:35;1.95;;;1.10;;
51836;SDS011;38941;53.254;6.600;2022-12-29T03:19:40;2.97;;;1.10;;
51836;SDS011;38941;53.254;6.600;2022-12-29T03:21:56;2.40;;;1.10;;
51836;SDS011;38941;53.254;6.600;2022-12-29T03:24:22;5.07;;;1.30;;
51836;SDS011;38941;53.254;6.600;2022-12-29T03:26:25;1.10;;;0.90;;
51836;SDS011;38941;53.254;6.600;2022-12-29T03:28:29;3.22;;;1.40;;
51836;SDS011;38941;53.254;6.600;2022-12-29T03:30:36;3.40;;;1.00;;
51836;SDS011;38941;53.254;6.600;2022-12-29T03:32:58;1.58;;;1.15;;
51836;SDS011;38941;53.254;6.600;2022-12-29T03:35:02;4.90;;;1.65;;
51836;SDS011;38941;53.254;6.600;2022-12-29T03:37:06;2.75;;;0.70;;
51836;SDS011;38941;53.254;6.600;2022-12-29T03:39:12;1.58;;;0.77;;
51836;SDS011;38941;53.254;6.600;2022-12-29T03:41:19;3.42;;;1.02;;
51836;SDS011;38941;53.254;6.600;2022-12-29T03:43:23;3.75;;;0.70;;
51836;SDS011;38941;53.254;6.600;2022-12-29T03:45:25;3.17;;;0.73;;
51836;SDS011;38941;53.254;6.600;2022-12-29T03:47:26;1.75;;;0.60;;
51836;SDS011;38941;53.254;6.600;2022-12-29T03:49:27;2.50;;;0.82;;
51836;SDS011;38941;53.254;6.600;2022-12-29T03:51:27;5.07;;;0.90;;
51836;SDS011;38941;53.254;6.600;2022-12-29T03:53:28;5.20;;;1.10;;
51836;SDS011;38941;53.254;6.600;2022-12-29T03:55:29;3.40;;;0.75;;
51836;SDS011;38941;53.254;6.600;2022-12-29T03:57:30;7.60;;;1.30;;
51836;SDS011;38941;53.254;6.600;2022-12-29T03:59:31;1.75;;;0.70;;
51836;SDS011;38941;53.254;6.600;2022-12-29T04:01:33;2.10;;;0.98;;
51836;SDS011;38941;53.254;6.600;2022-12-29T04:03:33;1.27;;;1.02;;
51836;SDS011;38941;53.254;6.600;2022-12-29T04:05:34;2.22;;;0.70;;
51836;SDS011;38941;53.254;6.600;2022-12-29T04:07:35;3.97;;;0.98;;
51836;SDS011;38941;53.254;6.600;2022-12-29T04:09:37;3.28;;;0.70;;
51836;SDS011;38941;53.254;6.600;2022-12-29T04:11:37;3.00;;;0.80;;
51836;SDS011;38941;53.254;6.600;2022-12-29T04:13:39;3.63;;;0.73;;
51836;SDS011;38941;53.254;6.600;2022-12-29T04:15:41;1.48;;;0.80;;
51836;SDS011;38941;53.254;6.600;2022-12-29T04:17:43;3.17;;;1.10;;
51836;SDS011;38941;53.254;6.600;2022-12-29T04:19:44;1.90;;;0.70;;
51836;SDS011;38941;53.254;6.600;2022-12-29T04:21:44;4.18;;;0.88;;
51836;SDS011;38941;53.254;6.600;2022-12-29T04:23:45;3.85;;;0.82;;
51836;SDS011;38941;53.254;6.600;2022-12-29T04:25:46;2.47;;;0.77;;
51836;SDS011;38941;53.254;6.600;2022-12-29T04:27:50;3.95;;;0.80;;
51836;SDS011;38941;53.254;6.600;2022-12-29T04:29:50;2.30;;;0.75;;
51836;SDS011;38941;53.254;6.600;2022-12-29T04:31:51;3.55;;;1.27;;
51836;SDS011;38941;53.254;6.600;2022-12-29T04:33:51;3.67;;;0.93;;
51836;SDS011;38941;53.254;6.600;2022-12-29T04:35:52;5.07;;;0.75;;
51836;SDS011;38941;53.254;6.600;2022-12-29T04:37:53;3.25;;;0.50;;
51836;SDS011;38941;53.254;6.600;2022-12-29T04:39:54;3.15;;;0.55;;
51836;SDS011;38941;53.254;6.600;2022-12-29T04:41:55;2.17;;;0.60;;
51836;SDS011;38941;53.254;6.600;2022-12-29T04:43:55;3.15;;;0.75;;
51836;SDS011;38941;53.254;6.600;2022-12-29T04:45:56;3.17;;;0.82;;
51836;SDS011;38941;53.254;6.600;2022-12-29T04:47:57;2.30;;;0.50;;
51836;SDS011;38941;53.254;6.600;2022-12-29T04:49:58;2.50;;;0.70;;
51836;SDS011;38941;53.254;6.600;2022-12-29T04:51:58;4.57;;;0.70;;
51836;SDS011;38941;53.254;6.600;2022-12-29T04:53:59;10.13;;;0.93;;
51836;SDS011;38941;53.254;6.600;2022-12-29T04:56:00;4.63;;;0.93;;
51836;SDS011;38941;53.254;6.600;2022-12-29T04:58:00;6.32;;;0.90;;
51836;SDS011;38941;53.254;6.600;2022-12-29T05:00:01;4.55;;;1.05;;
51836;SDS011;38941;53.254;6.600;2022-12-29T05:02:03;2.90;;;0.60;;
51836;SDS011;38941;53.254;6.600;2022-12-29T05:04:05;4.47;;;0.95;;
51836;SDS011;38941;53.254;6.600;2022-12-29T05:06:05;3.08;;;0.63;;
51836;SDS011;38941;53.254;6.600;2022-12-29T05:08:06;7.45;;;1.33;;
51836;SDS011;38941;53.254;6.600;2022-12-29T05:10:08;3.78;;;1.20;;
51836;SDS011;38941;53.254;6.600;2022-12-29T05:12:09;3.35;;;0.70;;
51836;SDS011;38941;53.254;6.600;2022-12-29T05:14:09;2.50;;;0.70;;
51836;SDS011;38941;53.254;6.600;2022-12-29T05:16:10;6.90;;;0.82;;
51836;SDS011;38941;53.254;6.600;2022-12-29T05:18:11;5.50;;;1.25;;
51836;SDS011;38941;53.254;6.600;2022-12-29T05:20:12;3.80;;;0.80;;
51836;SDS011;38941;53.254;6.600;2022-12-29T05:22:13;5.00;;;0.73;;
51836;SDS011;38941;53.254;6.600;2022-12-29T05:24:14;9.60;;;0.75;;
51836;SDS011;38941;53.254;6.600;2022-12-29T05:26:16;1.85;;;0.73;;
51836;SDS011;38941;53.254;6.600;2022-12-29T05:28:17;6.00;;;1.00;;
51836;SDS011;38941;53.254;6.600;2022-12-29T05:30:18;3.72;;;0.70;;
51836;SDS011;38941;53.254;6.600;2022-12-29T05:32:19;3.90;;;0.88;;
51836;SDS011;38941;53.254;6.600;2022-12-29T05:34:20;4.95;;;1.02;;
51836;SDS011;38941;53.254;6.600;2022-12-29T05:36:21;7.72;;;1.20;;
51836;SDS011;38941;53.254;6.600;2022-12-29T05:38:21;5.60;;;1.10;;
51836;SDS011;38941;53.254;6.600;2022-12-29T05:40:22;6.65;;;0.90;;
51836;SDS011;38941;53.254;6.600;2022-12-29T05:42:23;10.32;;;2.38;;
51836;SDS011;38941;53.254;6.600;2022-12-29T05:44:23;10.50;;;0.90;;
51836;SDS011;38941;53.254;6.600;2022-12-29T05:46:24;9.00;;;1.15;;
51836;SDS011;38941;53.254;6.600;2022-12-29T05:48:25;11.85;;;1.42;;
51836;SDS011;38941;53.254;6.600;2022-12-29T05:50:26;7.95;;;1.10;;
51836;SDS011;38941;53.254;6.600;2022-12-29T05:52:26;7.35;;;1.67;;
51836;SDS011;38941;53.254;6.600;2022-12-29T05:54:29;6.85;;;1.30;;
51836;SDS011;38941;53.254;6.600;2022-12-29T05:56:29;5.13;;;1.27;;
51836;SDS011;38941;53.254;6.600;2022-12-29T05:58:30;8.95;;;1.30;;
51836;SDS011;38941;53.254;6.600;2022-12-29T06:00:31;9.15;;;0.95;;
51836;SDS011;38941;53.254;6.600;2022-12-29T06:02:32;11.73;;;1.20;;
51836;SDS011;38941;53.254;6.600;2022-12-29T06:04:32;4.85;;;0.95;;
51836;SDS011;38941;53.254;6.600;2022-12-29T06:06:33;7.13;;;0.95;;
51836;SDS011;38941;53.254;6.600;2022-12-29T06:08:34;10.13;;;0.88;;
51836;SDS011;38941;53.254;6.600;2022-12-29T06:10:35;4.30;;;1.08;;
51836;SDS011;38941;53.254;6.600;2022-12-29T06:12:35;4.28;;;1.42;;
51836;SDS011;38941;53.254;6.600;2022-12-29T06:14:36;5.70;;;2.15;;
51836;SDS011;38941;53.254;6.600;2022-12-29T06:16:37;10.02;;;0.70;;
51836;SDS011;38941;53.254;6.600;2022-12-29T06:18:39;5.43;;;0.80;;
51836;SDS011;38941;53.254;6.600;2022-12-29T06:20:40;8.75;;;1.02;;
51836;SDS011;38941;53.254;6.600;2022-12-29T06:22:41;7.63;;;1.63;;
51836;SDS011;38941;53.254;6.600;2022-12-29T06:24:43;2.78;;;0.88;;
51836;SDS011;38941;53.254;6.600;2022-12-29T06:26:44;7.03;;;1.60;;
51836;SDS011;38941;53.254;6.600;2022-12-29T06:28:44;8.18;;;1.05;;
51836;SDS011;38941;53.254;6.600;2022-12-29T06:30:45;5.00;;;1.10;;
51836;SDS011;38941;53.254;6.600;2022-12-29T06:32:46;10.35;;;1.65;;
51836;SDS011;38941;53.254;6.600;2022-12-29T06:34:47;12.90;;;1.35;;
51836;SDS011;38941;53.254;6.600;2022-12-29T06:36:48;5.65;;;1.05;;
51836;SDS011;38941;53.254;6.600;2022-12-29T06:38:49;14.45;;;1.35;;
51836;SDS011;38941;53.254;6.600;2022-12-29T06:40:52;5.85;;;1.17;;
51836;SDS011;38941;53.254;6.600;2022-12-29T06:42:53;7.63;;;1.35;;
51836;SDS011;38941;53.254;6.600;2022-12-29T06:44:53;6.15;;;1.17;;
51836;SDS011;38941;53.254;6.600;2022-12-29T06:46:58;4.30;;;1.20;;
51836;SDS011;38941;53.254;6.600;2022-12-29T06:48:59;12.27;;;1.83;;
51836;SDS011;38941;53.254;6.600;2022-12-29T06:50:59;10.10;;;1.98;;
51836;SDS011;38941;53.254;6.600;2022-12-29T06:53:01;8.40;;;1.30;;
51836;SDS011;38941;53.254;6.600;2022-12-29T06:55:02;7.00;;;1.73;;
51836;SDS011;38941;53.254;6.600;2022-12-29T06:57:03;4.45;;;0.82;;
51836;SDS011;38941;53.254;6.600;2022-12-29T06:59:04;7.18;;;1.50;;
51836;SDS011;38941;53.254;6.600;2022-12-29T07:01:07;10.80;;;1.83;;
51836;SDS011;38941;53.254;6.600;2022-12-29T07:03:07;7.03;;;1.67;;
51836;SDS011;38941;53.254;6.600;2022-12-29T07:05:09;8.65;;;1.30;;
51836;SDS011;38941;53.254;6.600;2022-12-29T07:07:10;7.60;;;1.05;;
51836;SDS011;38941;53.254;6.600;2022-12-29T07:09:11;10.93;;;1.33;;
51836;SDS011;38941;53.254;6.600;2022-12-29T07:11:12;12.23;;;1.90;;
51836;SDS011;38941;53.254;6.600;2022-12-29T07:13:12;11.85;;;1.27;;
51836;SDS011;38941;53.254;6.600;2022-12-29T07:15:13;11.15;;;1.90;;
51836;SDS011;38941;53.254;6.600;2022-12-29T07:17:15;6.70;;;0.95;;
51836;SDS011;38941;53.254;6.600;2022-12-29T07:19:17;10.07;;;1.83;;
51836;SDS011;38941;53.254;6.600;2022-12-29T07:21:17;6.28;;;1.25;;
51836;SDS011;38941;53.254;6.600;2022-12-29T07:23:19;6.93;;;1.23;;
51836;SDS011;38941;53.254;6.600;2022-12-29T07:25:19;8.75;;;0.88;;
51836;SDS011;38941;53.254;6.600;2022-12-29T07:27:21;6.10;;;1.92;;
51836;SDS011;38941;53.254;6.600;2022-12-29T07:29:22;14.50;;;2.50;;
51836;SDS011;38941;53.254;6.600;2022-12-29T07:31:23;12.07;;;1.73;;
51836;SDS011;38941;53.254;6.600;2022-12-29T07:33:23;11.40;;;1.65;;
51836;SDS011;38941;53.254;6.600;2022-12-29T07:35:24;10.82;;;1.25;;
51836;SDS011;38941;53.254;6.600;2022-12-29T07:37:25;7.60;;;1.38;;
51836;SDS011;38941;53.254;6.600;2022-12-29T07:39:26;9.50;;;1.15;;
51836;SDS011;38941;53.254;6.600;2022-12-29T07:41:26;11.95;;;1.42;;
51836;SDS011;38941;53.254;6.600;2022-12-29T07:43:27;7.90;;;1.42;;
51836;SDS011;38941;53.254;6.600;2022-12-29T07:45:28;8.82;;;1.80;;
51836;SDS011;38941;53.254;6.600;2022-12-29T07:47:30;8.95;;;1.23;;
51836;SDS011;38941;53.254;6.600;2022-12-29T07:49:30;6.70;;;1.45;;
51836;SDS011;38941;53.254;6.600;2022-12-29T07:51:31;8.00;;;1.20;;
51836;SDS011;38941;53.254;6.600;2022-12-29T07:53:32;9.23;;;1.17;;
51836;SDS011;38941;53.254;6.600;2022-12-29T07:55:34;6.93;;;0.90;;
51836;SDS011;38941;53.254;6.600;2022-12-29T07:57:35;6.13;;;2.22;;
51836;SDS011;38941;53.254;6.600;2022-12-29T07:59:35;8.00;;;1.67;;
51836;SDS011;38941;53.254;6.600;2022-12-29T08:01:36;13.50;;;1.95;;
51836;SDS011;38941;53.254;6.600;2022-12-29T08:03:37;12.20;;;1.92;;
51836;SDS011;38941;53.254;6.600;2022-12-29T08:05:38;10.98;;;1.30;;
51836;SDS011;38941;53.254;6.600;2022-12-29T08:07:39;6.00;;;1.50;;
51836;SDS011;38941;53.254;6.600;2022-12-29T08:09:41;5.88;;;1.15;;
51836;SDS011;38941;53.254;6.600;2022-12-29T08:11:42;9.77;;;1.75;;
51836;SDS011;38941;53.254;6.600;2022-12-29T08:13:45;7.75;;;1.55;;
51836;SDS011;38941;53.254;6.600;2022-12-29T08:15:46;8.38;;;1.77;;
51836;SDS011;38941;53.254;6.600;2022-12-29T08:17:47;10.38;;;1.67;;
51836;SDS011;38941;53.254;6.600;2022-12-29T08:19:47;10.95;;;2.08;;
51836;SDS011;38941;53.254;6.600;2022-12-29T08:21:48;6.72;;;1.42;;
51836;SDS011;38941;53.254;6.600;2022-12-29T08:23:49;8.35;;;1.77;;
51836;SDS011;38941;53.254;6.600;2022-12-29T08:25:56;10.75;;;1.58;;
51836;SDS011;38941;53.254;6.600;2022-12-29T08:28:00;6.50;;;1.23;;
51836;SDS011;38941;53.254;6.600;2022-12-29T08:30:01;5.13;;;1.42;;
51836;SDS011;38941;53.254;6.600;2022-12-29T08:32:02;11.85;;;2.47;;
51836;SDS011;38941;53.254;6.600;2022-12-29T08:34:03;13.52;;;1.95;;
51836;SDS011;38941;53.254;6.600;2022-12-29T08:36:05;10.60;;;1.48;;
51836;SDS011;38941;53.254;6.600;2022-12-29T08:38:07;12.20;;;2.20;;
51836;SDS011;38941;53.254;6.600;2022-12-29T08:40:11;10.32;;;2.00;;
51836;SDS011;38941;53.254;6.600;2022-12-29T08:42:12;9.65;;;2.53;;
51836;SDS011;38941;53.254;6.600;2022-12-29T08:44:12;7.65;;;1.40;;
51836;SDS011;38941;53.254;6.600;2022-12-29T08:46:13;20.58;;;2.90;;
51836;SDS011;38941;53.254;6.600;2022-12-29T08:48:15;12.95;;;2.45;;
51836;SDS011;38941;53.254;6.600;2022-12-29T08:50:22;10.07;;;2.30;;
51836;SDS011;38941;53.254;6.600;2022-12-29T08:52:22;16.27;;;2.38;;
51836;SDS011;38941;53.254;6.600;2022-12-29T08:54:24;10.13;;;2.88;;
51836;SDS011;38941;53.254;6.600;2022-12-29T08:56:25;12.65;;;1.50;;
51836;SDS011;38941;53.254;6.600;2022-12-29T08:58:27;17.92;;;2.00;;
51836;SDS011;38941;53.254;6.600;2022-12-29T09:00:28;7.65;;;1.27;;
51836;SDS011;38941;53.254;6.600;2022-12-29T09:02:28;10.13;;;1.52;;
51836;SDS011;38941;53.254;6.600;2022-12-29T09:04:30;13.30;;;2.08;;
51836;SDS011;38941;53.254;6.600;2022-12-29T09:06:31;17.25;;;1.88;;
51836;SDS011;38941;53.254;6.600;2022-12-29T09:08:31;9.77;;;1.85;;
51836;SDS011;38941;53.254;6.600;2022-12-29T09:10:32;15.60;;;2.05;;
51836;SDS011;38941;53.254;6.600;2022-12-29T09:12:33;12.07;;;1.73;;
51836;SDS011;38941;53.254;6.600;2022-12-29T09:14:34;10.68;;;1.30;;
51836;SDS011;38941;53.254;6.600;2022-12-29T09:16:35;9.38;;;1.70;;
51836;SDS011;38941;53.254;6.600;2022-12-29T09:18:36;12.18;;;2.50;;
51836;SDS011;38941;53.254;6.600;2022-12-29T09:20:37;14.60;;;3.33;;
51836;SDS011;38941;53.254;6.600;2022-12-29T09:22:38;12.88;;;2.42;;
51836;SDS011;38941;53.254;6.600;2022-12-29T09:24:38;18.17;;;2.22;;
51836;SDS011;38941;53.254;6.600;2022-12-29T09:26:39;12.55;;;1.67;;
51836;SDS011;38941;53.254;6.600;2022-12-29T09:28:40;13.15;;;2.50;;
51836;SDS011;38941;53.254;6.600;2022-12-29T09:30:41;12.48;;;1.73;;
51836;SDS011;38941;53.254;6.600;2022-12-29T09:32:42;18.27;;;1.83;;
51836;SDS011;38941;53.254;6.600;2022-12-29T09:34:44;19.08;;;3.22;;
51836;SDS011;38941;53.254;6.600;2022-12-29T09:36:44;13.80;;;2.42;;
51836;SDS011;38941;53.254;6.600;2022-12-29T09:38:45;10.05;;;1.27;;
51836;SDS011;38941;53.254;6.600;2022-12-29T09:40:51;10.02;;;2.10;;
51836;SDS011;38941;53.254;6.600;2022-12-29T09:43:08;12.10;;;1.77;;
51836;SDS011;38941;53.254;6.600;2022-12-29T09:47:43;7.63;;;1.30;;
51836;SDS011;38941;53.254;6.600;2022-12-29T09:49:53;11.13;;;2.17;;
51836;SDS011;38941;53.254;6.600;2022-12-29T09:52:01;12.57;;;1.85;;
51836;SDS011;38941;53.254;6.600;2022-12-29T09:56:23;12.73;;;1.88;;
51836;SDS011;38941;53.254;6.600;2022-12-29T10:03:13;9.55;;;1.48;;
51836;SDS011;38941;53.254;6.600;2022-12-29T10:16:10;9.45;;;1.60;;
51836;SDS011;38941;53.254;6.600;2022-12-29T10:25:02;8.93;;;1.55;;
51836;SDS011;38941;53.254;6.600;2022-12-29T10:27:17;9.25;;;1.67;;
51836;SDS011;38941;53.254;6.600;2022-12-29T10:29:19;6.38;;;2.05;;
51836;SDS011;38941;53.254;6.600;2022-12-29T10:31:58;5.88;;;1.45;;
51836;SDS011;38941;53.254;6.600;2022-12-29T10:34:03;12.73;;;1.60;;
51836;SDS011;38941;53.254;6.600;2022-12-29T10:36:38;16.45;;;1.48;;
51836;SDS011;38941;53.254;6.600;2022-12-29T10:41:13;11.38;;;1.38;;
51836;SDS011;38941;53.254;6.600;2022-12-29T10:43:30;8.27;;;2.10;;
51836;SDS011;38941;53.254;6.600;2022-12-29T10:45:35;12.27;;;2.47;;
51836;SDS011;38941;53.254;6.600;2022-12-29T10:47:38;10.07;;;2.15;;
51836;SDS011;38941;53.254;6.600;2022-12-29T10:49:50;6.57;;;1.88;;
51836;SDS011;38941;53.254;6.600;2022-12-29T10:51:51;10.68;;;1.88;;
51836;SDS011;38941;53.254;6.600;2022-12-29T10:54:04;10.70;;;1.45;;
51836;SDS011;38941;53.254;6.600;2022-12-29T10:58:29;10.95;;;1.83;;
51836;SDS011;38941;53.254;6.600;2022-12-29T11:00:32;8.95;;;1.98;;
51836;SDS011;38941;53.254;6.600;2022-12-29T11:07:33;7.70;;;1.42;;
51836;SDS011;38941;53.254;6.600;2022-12-29T11:09:34;10.93;;;1.50;;
51836;SDS011;38941;53.254;6.600;2022-12-29T11:11:37;13.80;;;3.20;;
51836;SDS011;38941;53.254;6.600;2022-12-29T11:13:48;11.55;;;3.45;;
51836;SDS011;38941;53.254;6.600;2022-12-29T11:15:51;18.63;;;1.90;;
51836;SDS011;38941;53.254;6.600;2022-12-29T11:17:58;18.88;;;1.98;;
51836;SDS011;38941;53.254;6.600;2022-12-29T11:19:59;12.15;;;1.58;;
51836;SDS011;38941;53.254;6.600;2022-12-29T11:22:28;12.75;;;2.63;;
51836;SDS011;38941;53.254;6.600;2022-12-29T11:24:29;15.43;;;2.13;;
51836;SDS011;38941;53.254;6.600;2022-12-29T11:26:31;11.13;;;1.88;;
51836;SDS011;38941;53.254;6.600;2022-12-29T11:28:34;16.50;;;2.90;;
51836;SDS011;38941;53.254;6.600;2022-12-29T11:30:40;8.23;;;1.80;;
51836;SDS011;38941;53.254;6.600;2022-12-29T11:32:42;14.70;;;2.15;;
51836;SDS011;38941;53.254;6.600;2022-12-29T11:34:52;13.80;;;2.75;;
51836;SDS011;38941;53.254;6.600;2022-12-29T11:36:53;14.30;;;2.92;;
51836;SDS011;38941;53.254;6.600;2022-12-29T11:39:01;20.85;;;2.47;;
51836;SDS011;38941;53.254;6.600;2022-12-29T11:41:02;21.83;;;2.70;;
51836;SDS011;38941;53.254;6.600;2022-12-29T11:43:05;14.32;;;2.72;;
51836;SDS011;38941;53.254;6.600;2022-12-29T11:45:16;21.35;;;2.83;;
51836;SDS011;38941;53.254;6.600;2022-12-29T11:47:25;11.07;;;1.60;;
51836;SDS011;38941;53.254;6.600;2022-12-29T11:49:29;14.95;;;2.65;;
51836;SDS011;38941;53.254;6.600;2022-12-29T11:51:36;14.73;;;2.53;;
51836;SDS011;38941;53.254;6.600;2022-12-29T11:53:47;13.77;;;2.38;;
51836;SDS011;38941;53.254;6.600;2022-12-29T11:55:56;18.02;;;1.80;;
51836;SDS011;38941;53.254;6.600;2022-12-29T11:58:06;14.45;;;2.45;;
51836;SDS011;38941;53.254;6.600;2022-12-29T12:00:24;12.98;;;1.95;;
51836;SDS011;38941;53.254;6.600;2022-12-29T12:02:36;17.92;;;2.72;;
51836;SDS011;38941;53.254;6.600;2022-12-29T12:04:41;10.68;;;1.98;;
51836;SDS011;38941;53.254;6.600;2022-12-29T12:06:48;13.13;;;2.22;;
51836;SDS011;38941;53.254;6.600;2022-12-29T12:09:10;12.25;;;2.30;;
51836;SDS011;38941;53.254;6.600;2022-12-29T12:11:20;16.23;;;2.63;;
51836;SDS011;38941;53.254;6.600;2022-12-29T12:15:42;13.73;;;2.28;;
51836;SDS011;38941;53.254;6.600;2022-12-29T12:17:53;13.65;;;1.88;;
51836;SDS011;38941;53.254;6.600;2022-12-29T12:20:10;6.82;;;2.28;;
51836;SDS011;38941;53.254;6.600;2022-12-29T12:22:34;9.73;;;1.52;;
51836;SDS011;38941;53.254;6.600;2022-12-29T12:24:47;13.85;;;2.80;;
51836;SDS011;38941;53.254;6.600;2022-12-29T12:27:02;12.30;;;2.30;;
51836;SDS011;38941;53.254;6.600;2022-12-29T12:29:26;16.90;;;2.00;;
51836;SDS011;38941;53.254;6.600;2022-12-29T12:33:41;15.73;;;2.00;;
51836;SDS011;38941;53.254;6.600;2022-12-29T12:40:23;10.32;;;1.70;;
51836;SDS011;38941;53.254;6.600;2022-12-29T12:42:42;10.98;;;1.33;;
51836;SDS011;38941;53.254;6.600;2022-12-29T12:47:49;9.05;;;1.48;;
51836;SDS011;38941;53.254;6.600;2022-12-29T12:50:16;8.77;;;1.40;;
51836;SDS011;38941;53.254;6.600;2022-12-29T12:54:46;10.13;;;0.93;;
51836;SDS011;38941;53.254;6.600;2022-12-29T13:00:18;9.23;;;0.95;;
51836;SDS011;38941;53.254;6.600;2022-12-29T13:02:24;10.18;;;1.30;;
51836;SDS011;38941;53.254;6.600;2022-12-29T13:07:12;8.18;;;1.30;;
51836;SDS011;38941;53.254;6.600;2022-12-29T13:18:52;6.45;;;1.52;;
51836;SDS011;38941;53.254;6.600;2022-12-29T13:21:38;7.00;;;0.77;;
51836;SDS011;38941;53.254;6.600;2022-12-29T13:26:20;4.43;;;0.93;;
51836;SDS011;38941;53.254;6.600;2022-12-29T13:31:15;6.13;;;0.98;;
51836;SDS011;38941;53.254;6.600;2022-12-29T13:36:00;5.03;;;1.63;;
51836;SDS011;38941;53.254;6.600;2022-12-29T13:38:10;7.60;;;1.92;;
51836;SDS011;38941;53.254;6.600;2022-12-29T13:40:13;5.47;;;1.33;;
51836;SDS011;38941;53.254;6.600;2022-12-29T13:42:17;9.02;;;2.08;;
51836;SDS011;38941;53.254;6.600;2022-12-29T13:46:44;13.32;;;1.33;;
51836;SDS011;38941;53.254;6.600;2022-12-29T13:49:10;13.95;;;1.50;;
51836;SDS011;38941;53.254;6.600;2022-12-29T13:51:12;10.80;;;1.67;;
51836;SDS011;38941;53.254;6.600;2022-12-29T13:53:19;6.10;;;1.90;;
51836;SDS011;38941;53.254;6.600;2022-12-29T14:00:23;6.30;;;1.00;;
51836;SDS011;38941;53.254;6.600;2022-12-29T14:02:31;8.55;;;1.70;;
51836;SDS011;38941;53.254;6.600;2022-12-29T14:04:58;6.53;;;1.10;;
51836;SDS011;38941;53.254;6.600;2022-12-29T14:07:19;4.93;;;1.50;;
51836;SDS011;38941;53.254;6.600;2022-12-29T14:09:41;9.05;;;1.33;;
51836;SDS011;38941;53.254;6.600;2022-12-29T14:11:48;9.70;;;1.80;;
51836;SDS011;38941;53.254;6.600;2022-12-29T14:13:48;6.25;;;1.10;;
51836;SDS011;38941;53.254;6.600;2022-12-29T14:15:54;9.70;;;1.08;;
51836;SDS011;38941;53.254;6.600;2022-12-29T14:18:17;8.63;;;1.00;;
51836;SDS011;38941;53.254;6.600;2022-12-29T14:20:23;6.93;;;1.38;;
51836;SDS011;38941;53.254;6.600;2022-12-29T14:22:25;7.63;;;1.33;;
51836;SDS011;38941;53.254;6.600;2022-12-29T14:28:38;8.07;;;1.02;;
51836;SDS011;38941;53.254;6.600;2022-12-29T14:30:45;4.88;;;0.80;;
51836;SDS011;38941;53.254;6.600;2022-12-29T14:33:01;4.85;;;0.98;;
51836;SDS011;38941;53.254;6.600;2022-12-29T14:38:05;3.15;;;0.98;;